sensor_id;sensor_type;location;lat;lon;timestamp;pressure;altitude;pressure_sealevel;temperature;humidity
6668;BME280;3370;47.712;9.082;2024-02-26T00:01:58;95152.41;;;5.06;86.49
6668;BME280;3370;47.712;9.082;2024-02-26T00:04:44;95155.41;;;5.13;86.56
6668;BME280;3370;47.712;9.082;2024-02-26T00:07:30;95151.06;;;4.99;87.27
6668;BME280;3370;47.712;9.082;2024-02-26T00:10:17;95154.34;;;5.01;87.71
6668;BME280;3370;47.712;9.082;2024-02-26T00:13:03;95147.78;;;4.97;88.43
6668;BME280;3370;47.712;9.082;2024-02-26T00:15:49;95154.03;;;5.07;87.27
6668;BME280;3370;47.712;9.082;2024-02-26T00:18:36;95151.06;;;4.99;89.01
6668;BME280;3370;47.712;9.082;2024-02-26T00:21:23;95145.13;;;4.98;90.12
6668;BME280;3370;47.712;9.082;2024-02-26T00:24:09;95136.88;;;4.95;91.07
6668;BME280;3370;47.712;9.082;2024-02-26T00:26:55;95129.03;;;4.98;91.34
6668;BME280;3370;47.712;9.082;2024-02-26T00:29:42;95131.16;;;5.06;90.27
6668;BME280;3370;47.712;9.082;2024-02-26T00:32:28;95122.78;;;5.19;89.80
6668;BME280;3370;47.712;9.082;2024-02-26T00:35:14;95131.91;;;5.24;91.93
6668;BME280;3370;47.712;9.082;2024-02-26T00:38:01;95132.75;;;5.24;91.28
6668;BME280;3370;47.712;9.082;2024-02-26T00:40:49;95131.81;;;5.09;90.66
6668;BME280;3370;47.712;9.082;2024-02-26T00:43:35;95134.94;;;4.98;89.49
6668;BME280;3370;47.712;9.082;2024-02-26T00:46:21;95141.19;;;5.09;87.46
6668;BME280;3370;47.712;9.082;2024-02-26T00:49:07;95140.47;;;4.91;85.55
6668;BME280;3370;47.712;9.082;2024-02-26T00:51:53;95148.50;;;4.83;86.00
6668;BME280;3370;47.712;9.082;2024-02-26T00:54:39;95136.78;;;4.80;86.70
6668;BME280;3370;47.712;9.082;2024-02-26T00:57:25;95140.72;;;4.86;87.05
6668;BME280;3370;47.712;9.082;2024-02-26T01:00:12;95135.06;;;4.97;86.67
6668;BME280;3370;47.712;9.082;2024-02-26T01:02:58;95133.56;;;4.93;86.94
6668;BME280;3370;47.712;9.082;2024-02-26T01:05:45;95124.44;;;4.89;87.83
6668;BME280;3370;47.712;9.082;2024-02-26T01:08:32;95127.06;;;4.87;89.15
6668;BME280;3370;47.712;9.082;2024-02-26T01:11:18;95129.97;;;4.97;89.40
6668;BME280;3370;47.712;9.082;2024-02-26T01:14:04;95120.31;;;5.02;89.51
6668;BME280;3370;47.712;9.082;2024-02-26T01:16:50;95124.94;;;5.11;87.59
6668;BME280;3370;47.712;9.082;2024-02-26T01:19:36;95132.31;;;5.16;86.03
6668;BME280;3370;47.712;9.082;2024-02-26T01:22:22;95131.28;;;5.04;85.47
6668;BME280;3370;47.712;9.082;2024-02-26T01:25:08;95128.88;;;5.01;85.30
6668;BME280;3370;47.712;9.082;2024-02-26T01:27:58;95133.81;;;5.04;85.78
6668;BME280;3370;47.712;9.082;2024-02-26T01:30:44;95130.03;;;4.79;86.92
6668;BME280;3370;47.712;9.082;2024-02-26T01:33:30;95129.13;;;4.80;85.88
6668;BME280;3370;47.712;9.082;2024-02-26T01:36:16;95132.13;;;4.71;83.64
6668;BME280;3370;47.712;9.082;2024-02-26T01:39:02;95136.50;;;4.69;83.01
6668;BME280;3370;47.712;9.082;2024-02-26T01:41:49;95131.91;;;4.76;81.78
6668;BME280;3370;47.712;9.082;2024-02-26T01:44:35;95127.38;;;4.65;80.49
6668;BME280;3370;47.712;9.082;2024-02-26T01:47:21;95139.84;;;4.54;81.64
6668;BME280;3370;47.712;9.082;2024-02-26T01:50:09;95142.22;;;4.41;84.11
6668;BME280;3370;47.712;9.082;2024-02-26T01:52:56;95138.81;;;4.40;87.63
6668;BME280;3370;47.712;9.082;2024-02-26T01:55:43;95138.94;;;4.55;88.03
6668;BME280;3370;47.712;9.082;2024-02-26T01:58:29;95139.78;;;4.55;89.04
6668;BME280;3370;47.712;9.082;2024-02-26T02:01:18;95155.13;;;4.54;90.29
6668;BME280;3370;47.712;9.082;2024-02-26T02:04:07;95153.16;;;4.59;90.66
6668;BME280;3370;47.712;9.082;2024-02-26T02:06:53;95144.94;;;4.54;90.66
6668;BME280;3370;47.712;9.082;2024-02-26T02:09:40;95146.34;;;4.59;90.07
6668;BME280;3370;47.712;9.082;2024-02-26T02:12:27;95147.91;;;4.62;88.27
6668;BME280;3370;47.712;9.082;2024-02-26T02:15:13;95154.50;;;4.66;87.27
6668;BME280;3370;47.712;9.082;2024-02-26T02:17:59;95149.41;;;4.66;86.91
6668;BME280;3370;47.712;9.082;2024-02-26T02:20:46;95153.31;;;4.56;87.02
6668;BME280;3370;47.712;9.082;2024-02-26T02:23:32;95154.78;;;4.60;86.20
6668;BME280;3370;47.712;9.082;2024-02-26T02:26:19;95151.66;;;4.55;86.29
6668;BME280;3370;47.712;9.082;2024-02-26T02:29:06;95157.28;;;4.61;87.49
6668;BME280;3370;47.712;9.082;2024-02-26T02:31:52;95163.84;;;4.66;87.62
6668;BME280;3370;47.712;9.082;2024-02-26T02:34:39;95161.94;;;4.69;87.19
6668;BME280;3370;47.712;9.082;2024-02-26T02:37:25;95163.47;;;4.73;87.12
6668;BME280;3370;47.712;9.082;2024-02-26T02:40:11;95171.59;;;4.80;86.43
6668;BME280;3370;47.712;9.082;2024-02-26T02:42:58;95168.66;;;4.88;85.98
6668;BME280;3370;47.712;9.082;2024-02-26T02:45:44;95163.06;;;4.97;82.55
6668;BME280;3370;47.712;9.082;2024-02-26T02:48:30;95158.78;;;4.82;80.60
6668;BME280;3370;47.712;9.082;2024-02-26T02:51:16;95155.81;;;4.73;81.07
6668;BME280;3370;47.712;9.082;2024-02-26T02:54:03;95163.13;;;4.79;81.82
6668;BME280;3370;47.712;9.082;2024-02-26T02:56:49;95158.53;;;4.86;82.48
6668;BME280;3370;47.712;9.082;2024-02-26T02:59:36;95153.53;;;4.85;81.94
6668;BME280;3370;47.712;9.082;2024-02-26T03:02:22;95160.69;;;4.94;79.79
6668;BME280;3370;47.712;9.082;2024-02-26T03:05:10;95139.56;;;4.92;80.00
6668;BME280;3370;47.712;9.082;2024-02-26T03:07:56;95149.09;;;5.04;79.63
6668;BME280;3370;47.712;9.082;2024-02-26T03:10:42;95166.41;;;4.82;79.70
6668;BME280;3370;47.712;9.082;2024-02-26T03:13:29;95169.22;;;4.77;80.46
6668;BME280;3370;47.712;9.082;2024-02-26T03:16:17;95159.84;;;4.77;81.16
6668;BME280;3370;47.712;9.082;2024-02-26T03:19:03;95136.28;;;4.90;81.43
6668;BME280;3370;47.712;9.082;2024-02-26T03:21:49;95117.69;;;5.04;81.19
6668;BME280;3370;47.712;9.082;2024-02-26T03:24:35;95151.91;;;5.15;80.85
6668;BME280;3370;47.712;9.082;2024-02-26T03:27:21;95125.91;;;4.93;82.11
6668;BME280;3370;47.712;9.082;2024-02-26T03:30:09;95137.50;;;4.98;81.42
6668;BME280;3370;47.712;9.082;2024-02-26T03:32:55;95133.16;;;4.85;82.03
6668;BME280;3370;47.712;9.082;2024-02-26T03:35:42;95114.41;;;4.86;82.83
6668;BME280;3370;47.712;9.082;2024-02-26T03:38:29;95122.13;;;5.00;81.70
6668;BME280;3370;47.712;9.082;2024-02-26T03:41:16;95108.28;;;4.90;80.69
6668;BME280;3370;47.712;9.082;2024-02-26T03:44:03;95089.13;;;4.83;82.40
6668;BME280;3370;47.712;9.082;2024-02-26T03:46:49;95102.09;;;4.94;82.19
6668;BME280;3370;47.712;9.082;2024-02-26T03:49:35;95075.66;;;4.80;82.56
6668;BME280;3370;47.712;9.082;2024-02-26T03:52:21;95069.06;;;4.76;83.86
6668;BME280;3370;47.712;9.082;2024-02-26T03:55:07;95070.22;;;4.87;83.26
6668;BME280;3370;47.712;9.082;2024-02-26T03:57:54;95058.16;;;4.74;83.57
6668;BME280;3370;47.712;9.082;2024-02-26T04:00:40;95046.00;;;4.79;84.53
6668;BME280;3370;47.712;9.082;2024-02-26T04:03:26;95038.84;;;4.70;86.16
6668;BME280;3370;47.712;9.082;2024-02-26T04:06:12;95036.63;;;4.80;85.90
6668;BME280;3370;47.712;9.082;2024-02-26T04:09:03;95075.88;;;4.44;85.57
6668;BME280;3370;47.712;9.082;2024-02-26T04:11:49;95070.13;;;4.40;92.93
6668;BME280;3370;47.712;9.082;2024-02-26T04:14:36;95073.44;;;4.43;93.37
6668;BME280;3370;47.712;9.082;2024-02-26T04:17:22;95088.03;;;4.71;91.79
6668;BME280;3370;47.712;9.082;2024-02-26T04:20:13;95083.19;;;4.50;92.75
6668;BME280;3370;47.712;9.082;2024-02-26T04:23:00;95102.06;;;4.62;93.03
6668;BME280;3370;47.712;9.082;2024-02-26T04:25:46;95107.34;;;4.75;92.74
6668;BME280;3370;47.712;9.082;2024-02-26T04:28:32;95099.44;;;4.48;94.13
6668;BME280;3370;47.712;9.082;2024-02-26T04:31:19;95091.25;;;4.43;95.02
6668;BME280;3370;47.712;9.082;2024-02-26T04:34:05;95101.91;;;4.49;95.43
6668;BME280;3370;47.712;9.082;2024-02-26T04:36:51;95114.41;;;4.54;95.41
6668;BME280;3370;47.712;9.082;2024-02-26T04:39:37;95119.50;;;4.54;95.25
6668;BME280;3370;47.712;9.082;2024-02-26T04:42:23;95137.91;;;4.59;93.26
6668;BME280;3370;47.712;9.082;2024-02-26T04:45:09;95148.16;;;4.57;91.85
6668;BME280;3370;47.712;9.082;2024-02-26T04:47:55;95159.81;;;4.61;90.70
6668;BME280;3370;47.712;9.082;2024-02-26T04:50:41;95164.97;;;4.60;89.59
6668;BME280;3370;47.712;9.082;2024-02-26T04:53:27;95169.84;;;4.65;88.92
6668;BME280;3370;47.712;9.082;2024-02-26T04:56:13;95169.78;;;4.66;89.44
6668;BME280;3370;47.712;9.082;2024-02-26T04:58:59;95165.50;;;4.67;89.51
6668;BME280;3370;47.712;9.082;2024-02-26T05:01:45;95180.69;;;4.68;89.41
6668;BME280;3370;47.712;9.082;2024-02-26T05:04:31;95183.06;;;4.71;88.87
6668;BME280;3370;47.712;9.082;2024-02-26T05:07:17;95178.06;;;4.70;89.12
6668;BME280;3370;47.712;9.082;2024-02-26T05:10:04;95186.13;;;4.78;89.32
6668;BME280;3370;47.712;9.082;2024-02-26T05:12:50;95190.31;;;4.79;90.09
6668;BME280;3370;47.712;9.082;2024-02-26T05:15:36;95188.53;;;4.81;88.97
6668;BME280;3370;47.712;9.082;2024-02-26T05:18:23;95184.91;;;4.85;86.17
6668;BME280;3370;47.712;9.082;2024-02-26T05:21:09;95177.78;;;4.92;83.43
6668;BME280;3370;47.712;9.082;2024-02-26T05:23:55;95177.28;;;5.01;82.29
6668;BME280;3370;47.712;9.082;2024-02-26T05:26:41;95169.78;;;4.98;80.58
6668;BME280;3370;47.712;9.082;2024-02-26T05:29:27;95183.28;;;5.00;81.14
6668;BME280;3370;47.712;9.082;2024-02-26T05:32:13;95175.38;;;4.89;83.07
6668;BME280;3370;47.712;9.082;2024-02-26T05:34:59;95170.28;;;4.89;83.66
6668;BME280;3370;47.712;9.082;2024-02-26T05:37:45;95178.56;;;4.76;80.72
6668;BME280;3370;47.712;9.082;2024-02-26T05:40:31;95174.88;;;4.66;81.21
6668;BME280;3370;47.712;9.082;2024-02-26T05:43:17;95177.47;;;4.65;82.43
6668;BME280;3370;47.712;9.082;2024-02-26T05:46:03;95177.00;;;4.74;81.94
6668;BME280;3370;47.712;9.082;2024-02-26T05:48:52;95180.03;;;4.65;81.78
6668;BME280;3370;47.712;9.082;2024-02-26T05:51:38;95192.75;;;4.65;82.00
6668;BME280;3370;47.712;9.082;2024-02-26T05:54:24;95190.81;;;4.70;82.01
6668;BME280;3370;47.712;9.082;2024-02-26T05:57:10;95201.31;;;4.79;79.51
6668;BME280;3370;47.712;9.082;2024-02-26T05:59:57;95199.53;;;4.82;79.76
6668;BME280;3370;47.712;9.082;2024-02-26T06:02:46;95197.03;;;4.64;79.99
6668;BME280;3370;47.712;9.082;2024-02-26T06:05:32;95209.75;;;4.64;81.18
6668;BME280;3370;47.712;9.082;2024-02-26T06:08:18;95206.75;;;4.73;81.17
6668;BME280;3370;47.712;9.082;2024-02-26T06:11:08;95209.97;;;4.77;80.60
6668;BME280;3370;47.712;9.082;2024-02-26T06:13:54;95207.53;;;4.91;76.69
6668;BME280;3370;47.712;9.082;2024-02-26T06:16:40;95199.38;;;4.85;76.96
6668;BME280;3370;47.712;9.082;2024-02-26T06:19:26;95193.75;;;4.78;78.35
6668;BME280;3370;47.712;9.082;2024-02-26T06:22:12;95200.84;;;4.89;78.87
6668;BME280;3370;47.712;9.082;2024-02-26T06:24:58;95211.28;;;4.84;80.03
6668;BME280;3370;47.712;9.082;2024-02-26T06:27:44;95231.53;;;4.70;81.67
6668;BME280;3370;47.712;9.082;2024-02-26T06:30:30;95237.59;;;4.67;82.63
6668;BME280;3370;47.712;9.082;2024-02-26T06:33:17;95233.41;;;4.66;82.70
6668;BME280;3370;47.712;9.082;2024-02-26T06:36:03;95246.81;;;4.70;82.05
6668;BME280;3370;47.712;9.082;2024-02-26T06:38:50;95235.63;;;4.72;81.77
6668;BME280;3370;47.712;9.082;2024-02-26T06:41:37;95241.25;;;4.79;81.92
6668;BME280;3370;47.712;9.082;2024-02-26T06:44:25;95250.16;;;4.88;81.70
6668;BME280;3370;47.712;9.082;2024-02-26T06:47:11;95256.28;;;4.84;82.76
6668;BME280;3370;47.712;9.082;2024-02-26T06:49:58;95263.69;;;4.88;80.89
6668;BME280;3370;47.712;9.082;2024-02-26T06:52:44;95256.88;;;4.89;81.17
6668;BME280;3370;47.712;9.082;2024-02-26T06:55:32;95251.00;;;5.04;81.47
6668;BME280;3370;47.712;9.082;2024-02-26T06:58:18;95243.09;;;5.09;81.71
6668;BME280;3370;47.712;9.082;2024-02-26T07:01:04;95246.97;;;5.16;81.58
6668;BME280;3370;47.712;9.082;2024-02-26T07:03:50;95234.41;;;5.29;81.63
6668;BME280;3370;47.712;9.082;2024-02-26T07:06:36;95220.44;;;5.36;81.71
6668;BME280;3370;47.712;9.082;2024-02-26T07:09:22;95226.69;;;5.46;81.90
6668;BME280;3370;47.712;9.082;2024-02-26T07:12:09;95229.63;;;5.54;82.07
6668;BME280;3370;47.712;9.082;2024-02-26T07:14:55;95220.94;;;5.59;82.56
6668;BME280;3370;47.712;9.082;2024-02-26T07:17:41;95228.16;;;5.66;82.24
6668;BME280;3370;47.712;9.082;2024-02-26T07:20:27;95228.75;;;5.71;81.43
6668;BME280;3370;47.712;9.082;2024-02-26T07:23:13;95231.03;;;5.76;80.35
6668;BME280;3370;47.712;9.082;2024-02-26T07:25:59;95227.50;;;5.79;78.96
6668;BME280;3370;47.712;9.082;2024-02-26T07:28:46;95217.28;;;5.79;78.76
6668;BME280;3370;47.712;9.082;2024-02-26T07:31:32;95223.06;;;5.82;78.04
6668;BME280;3370;47.712;9.082;2024-02-26T07:34:18;95227.63;;;5.91;78.30
6668;BME280;3370;47.712;9.082;2024-02-26T07:37:04;95239.34;;;5.95;80.57
6668;BME280;3370;47.712;9.082;2024-02-26T07:39:52;95235.53;;;6.03;81.53
6668;BME280;3370;47.712;9.082;2024-02-26T07:42:40;95247.81;;;5.96;78.74
6668;BME280;3370;47.712;9.082;2024-02-26T07:45:26;95245.50;;;5.91;78.47
6668;BME280;3370;47.712;9.082;2024-02-26T07:48:12;95240.50;;;5.74;79.49
6668;BME280;3370;47.712;9.082;2024-02-26T07:50:59;95242.53;;;5.67;81.23
6668;BME280;3370;47.712;9.082;2024-02-26T07:53:46;95240.09;;;5.66;81.92
6668;BME280;3370;47.712;9.082;2024-02-26T07:56:32;95242.16;;;5.75;82.21
6668;BME280;3370;47.712;9.082;2024-02-26T07:59:18;95230.19;;;5.91;82.77
6668;BME280;3370;47.712;9.082;2024-02-26T08:02:04;95232.75;;;6.07;81.20
6668;BME280;3370;47.712;9.082;2024-02-26T08:04:51;95233.19;;;6.14;79.89
6668;BME280;3370;47.712;9.082;2024-02-26T08:07:37;95242.72;;;6.26;79.99
6668;BME280;3370;47.712;9.082;2024-02-26T08:10:23;95240.28;;;6.09;80.72
6668;BME280;3370;47.712;9.082;2024-02-26T08:13:09;95237.56;;;6.12;81.36
6668;BME280;3370;47.712;9.082;2024-02-26T08:15:55;95241.50;;;6.18;81.65
6668;BME280;3370;47.712;9.082;2024-02-26T08:18:41;95245.13;;;6.44;79.59
6668;BME280;3370;47.712;9.082;2024-02-26T08:21:28;95245.91;;;6.60;78.14
6668;BME280;3370;47.712;9.082;2024-02-26T08:24:14;95252.81;;;6.58;77.51
6668;BME280;3370;47.712;9.082;2024-02-26T08:27:00;95262.78;;;6.77;78.59
6668;BME280;3370;47.712;9.082;2024-02-26T08:29:46;95263.03;;;6.72;78.60
6668;BME280;3370;47.712;9.082;2024-02-26T08:32:32;95259.59;;;6.74;76.59
6668;BME280;3370;47.712;9.082;2024-02-26T08:35:18;95250.91;;;6.76;76.60
6668;BME280;3370;47.712;9.082;2024-02-26T08:38:05;95240.63;;;6.92;73.20
6668;BME280;3370;47.712;9.082;2024-02-26T08:40:51;95232.78;;;7.09;76.82
6668;BME280;3370;47.712;9.082;2024-02-26T08:43:37;95230.19;;;7.24;75.91
6668;BME280;3370;47.712;9.082;2024-02-26T08:46:23;95237.56;;;7.43;74.00
6668;BME280;3370;47.712;9.082;2024-02-26T08:49:09;95240.16;;;7.56;71.26
6668;BME280;3370;47.712;9.082;2024-02-26T08:51:55;95243.06;;;7.78;71.87
6668;BME280;3370;47.712;9.082;2024-02-26T08:54:42;95246.50;;;7.77;73.21
6668;BME280;3370;47.712;9.082;2024-02-26T08:57:28;95242.91;;;7.67;71.52
6668;BME280;3370;47.712;9.082;2024-02-26T09:00:15;95249.03;;;7.64;71.12
6668;BME280;3370;47.712;9.082;2024-02-26T09:03:06;95252.94;;;7.70;71.16
6668;BME280;3370;47.712;9.082;2024-02-26T09:05:52;95258.66;;;7.46;74.09
6668;BME280;3370;47.712;9.082;2024-02-26T09:08:38;95252.06;;;7.57;75.12
6668;BME280;3370;47.712;9.082;2024-02-26T09:11:24;95250.25;;;7.44;73.49
6668;BME280;3370;47.712;9.082;2024-02-26T09:14:10;95258.47;;;7.49;70.69
6668;BME280;3370;47.712;9.082;2024-02-26T09:16:56;95259.69;;;7.71;72.05
6668;BME280;3370;47.712;9.082;2024-02-26T09:19:42;95271.34;;;7.90;65.07
6668;BME280;3370;47.712;9.082;2024-02-26T09:22:29;95274.84;;;7.89;64.07
6668;BME280;3370;47.712;9.082;2024-02-26T09:25:19;95280.63;;;8.05;64.52
6668;BME280;3370;47.712;9.082;2024-02-26T09:28:05;95277.88;;;8.21;64.25
6668;BME280;3370;47.712;9.082;2024-02-26T09:30:51;95274.50;;;8.48;63.20
6668;BME280;3370;47.712;9.082;2024-02-26T09:33:37;95270.63;;;8.55;61.43
6668;BME280;3370;47.712;9.082;2024-02-26T09:36:23;95272.91;;;8.59;63.93
6668;BME280;3370;47.712;9.082;2024-02-26T09:39:09;95273.81;;;8.58;63.49
6668;BME280;3370;47.712;9.082;2024-02-26T09:41:57;95272.69;;;8.62;62.74
6668;BME280;3370;47.712;9.082;2024-02-26T09:44:46;95280.78;;;8.56;63.49
6668;BME280;3370;47.712;9.082;2024-02-26T09:47:36;95279.44;;;8.23;66.34
6668;BME280;3370;47.712;9.082;2024-02-26T09:50:23;95280.38;;;8.35;64.27
6668;BME280;3370;47.712;9.082;2024-02-26T09:53:13;95285.66;;;8.19;65.35
6668;BME280;3370;47.712;9.082;2024-02-26T09:56:00;95280.94;;;8.13;65.37
6668;BME280;3370;47.712;9.082;2024-02-26T09:58:47;95276.69;;;7.99;63.85
6668;BME280;3370;47.712;9.082;2024-02-26T10:01:38;95271.69;;;7.98;64.13
6668;BME280;3370;47.712;9.082;2024-02-26T10:04:27;95279.47;;;7.96;64.89
6668;BME280;3370;47.712;9.082;2024-02-26T10:07:14;95283.69;;;8.10;63.30
6668;BME280;3370;47.712;9.082;2024-02-26T10:10:01;95287.84;;;8.25;66.29
6668;BME280;3370;47.712;9.082;2024-02-26T10:12:47;95289.16;;;8.46;65.36
6668;BME280;3370;47.712;9.082;2024-02-26T10:15:33;95283.88;;;8.61;64.09
6668;BME280;3370;47.712;9.082;2024-02-26T10:18:19;95278.13;;;8.71;61.37
6668;BME280;3370;47.712;9.082;2024-02-26T10:21:05;95264.59;;;8.69;62.07
6668;BME280;3370;47.712;9.082;2024-02-26T10:23:53;95264.81;;;8.78;63.54
6668;BME280;3370;47.712;9.082;2024-02-26T10:26:46;95262.25;;;8.91;60.81
6668;BME280;3370;47.712;9.082;2024-02-26T10:29:32;95272.50;;;8.91;61.34
6668;BME280;3370;47.712;9.082;2024-02-26T10:32:18;95281.09;;;8.77;61.91
6668;BME280;3370;47.712;9.082;2024-02-26T10:35:08;95284.41;;;8.67;62.82
6668;BME280;3370;47.712;9.082;2024-02-26T10:37:54;95283.94;;;8.47;64.05
6668;BME280;3370;47.712;9.082;2024-02-26T10:40:41;95290.31;;;8.54;64.48
6668;BME280;3370;47.712;9.082;2024-02-26T10:43:27;95295.47;;;8.67;63.28
6668;BME280;3370;47.712;9.082;2024-02-26T10:46:13;95299.97;;;8.63;64.64
6668;BME280;3370;47.712;9.082;2024-02-26T10:48:59;95302.63;;;8.75;64.48
6668;BME280;3370;47.712;9.082;2024-02-26T10:51:55;95305.50;;;8.70;64.64
6668;BME280;3370;47.712;9.082;2024-02-26T10:54:42;95305.47;;;8.57;63.95
6668;BME280;3370;47.712;9.082;2024-02-26T10:57:35;95307.13;;;8.58;65.63
6668;BME280;3370;47.712;9.082;2024-02-26T11:00:24;95309.97;;;8.54;65.91
6668;BME280;3370;47.712;9.082;2024-02-26T11:03:11;95306.69;;;8.24;64.11
6668;BME280;3370;47.712;9.082;2024-02-26T11:06:00;95304.97;;;8.25;66.23
6668;BME280;3370;47.712;9.082;2024-02-26T11:08:50;95312.78;;;8.36;66.23
6668;BME280;3370;47.712;9.082;2024-02-26T11:11:36;95312.66;;;8.52;66.19
6668;BME280;3370;47.712;9.082;2024-02-26T11:14:24;95315.69;;;8.44;62.88
6668;BME280;3370;47.712;9.082;2024-02-26T11:17:13;95321.00;;;8.41;62.81
6668;BME280;3370;47.712;9.082;2024-02-26T11:20:00;95314.81;;;8.31;64.26
6668;BME280;3370;47.712;9.082;2024-02-26T11:22:48;95319.47;;;8.24;62.77
6668;BME280;3370;47.712;9.082;2024-02-26T11:25:36;95318.94;;;8.19;64.61
6668;BME280;3370;47.712;9.082;2024-02-26T11:28:24;95315.88;;;8.14;66.14
6668;BME280;3370;47.712;9.082;2024-02-26T11:31:13;95309.41;;;8.09;65.69
6668;BME280;3370;47.712;9.082;2024-02-26T11:33:59;95312.69;;;8.11;67.24
6668;BME280;3370;47.712;9.082;2024-02-26T11:36:48;95311.19;;;8.21;64.65
6668;BME280;3370;47.712;9.082;2024-02-26T11:39:35;95302.91;;;8.30;65.90
6668;BME280;3370;47.712;9.082;2024-02-26T11:42:25;95305.69;;;8.54;65.72
6668;BME280;3370;47.712;9.082;2024-02-26T11:48:32;95302.34;;;8.92;60.80
6668;BME280;3370;47.712;9.082;2024-02-26T11:51:26;95300.69;;;8.91;59.94
6668;BME280;3370;47.712;9.082;2024-02-26T11:54:45;95303.25;;;8.91;61.19
6668;BME280;3370;47.712;9.082;2024-02-26T11:57:39;95307.56;;;9.04;60.56
6668;BME280;3370;47.712;9.082;2024-02-26T12:00:26;95309.22;;;9.17;62.00
6668;BME280;3370;47.712;9.082;2024-02-26T12:03:13;95315.78;;;9.34;58.91
6668;BME280;3370;47.712;9.082;2024-02-26T12:06:00;95315.34;;;9.40;57.58
6668;BME280;3370;47.712;9.082;2024-02-26T12:08:46;95319.38;;;9.32;58.20
6668;BME280;3370;47.712;9.082;2024-02-26T12:11:33;95308.59;;;9.39;59.16
6668;BME280;3370;47.712;9.082;2024-02-26T12:14:25;95315.03;;;9.45;59.37
6668;BME280;3370;47.712;9.082;2024-02-26T12:17:23;95311.75;;;9.56;57.83
6668;BME280;3370;47.712;9.082;2024-02-26T12:20:11;95325.09;;;9.48;58.03
6668;BME280;3370;47.712;9.082;2024-02-26T12:22:58;95317.00;;;9.42;57.37
6668;BME280;3370;47.712;9.082;2024-02-26T12:25:44;95316.28;;;9.39;58.10
6668;BME280;3370;47.712;9.082;2024-02-26T12:28:33;95327.06;;;9.45;58.35
6668;BME280;3370;47.712;9.082;2024-02-26T12:31:20;95314.94;;;9.47;58.45
6668;BME280;3370;47.712;9.082;2024-02-26T12:34:07;95308.75;;;9.62;60.29
6668;BME280;3370;47.712;9.082;2024-02-26T12:36:55;95310.03;;;9.81;58.14
6668;BME280;3370;47.712;9.082;2024-02-26T12:39:42;95310.97;;;9.79;58.33
6668;BME280;3370;47.712;9.082;2024-02-26T12:42:29;95315.47;;;9.89;58.14
6668;BME280;3370;47.712;9.082;2024-02-26T12:45:18;95310.94;;;10.16;56.45
6668;BME280;3370;47.712;9.082;2024-02-26T12:48:05;95317.69;;;10.54;56.34
6668;BME280;3370;47.712;9.082;2024-02-26T12:50:52;95311.19;;;10.73;54.18
6668;BME280;3370;47.712;9.082;2024-02-26T12:53:38;95319.25;;;10.68;56.55
6668;BME280;3370;47.712;9.082;2024-02-26T12:56:26;95328.00;;;10.66;56.30
6668;BME280;3370;47.712;9.082;2024-02-26T12:59:13;95319.47;;;10.65;56.53
6668;BME280;3370;47.712;9.082;2024-02-26T13:02:00;95315.94;;;11.02;53.07
6668;BME280;3370;47.712;9.082;2024-02-26T13:04:47;95310.84;;;11.47;52.19
6668;BME280;3370;47.712;9.082;2024-02-26T13:07:34;95306.44;;;12.15;53.86
6668;BME280;3370;47.712;9.082;2024-02-26T13:10:20;95308.75;;;12.62;52.06
6668;BME280;3370;47.712;9.082;2024-02-26T13:13:07;95307.34;;;12.58;50.15
6668;BME280;3370;47.712;9.082;2024-02-26T13:16:05;95303.84;;;12.59;51.06
6668;BME280;3370;47.712;9.082;2024-02-26T13:18:53;95297.88;;;13.00;48.08
6668;BME280;3370;47.712;9.082;2024-02-26T13:21:39;95295.22;;;13.12;48.09
6668;BME280;3370;47.712;9.082;2024-02-26T13:24:26;95287.41;;;13.94;47.33
6668;BME280;3370;47.712;9.082;2024-02-26T13:27:12;95286.91;;;14.20;46.77
6668;BME280;3370;47.712;9.082;2024-02-26T13:30:09;95289.66;;;14.38;47.08
6668;BME280;3370;47.712;9.082;2024-02-26T13:32:56;95280.00;;;13.70;45.86
6668;BME280;3370;47.712;9.082;2024-02-26T13:35:42;95296.69;;;12.83;48.67
6668;BME280;3370;47.712;9.082;2024-02-26T13:38:28;95283.72;;;12.09;50.46
6668;BME280;3370;47.712;9.082;2024-02-26T13:41:14;95279.69;;;11.95;51.46
6668;BME280;3370;47.712;9.082;2024-02-26T13:44:01;95278.63;;;11.98;51.70
6668;BME280;3370;47.712;9.082;2024-02-26T13:46:48;95273.88;;;12.14;51.05
6668;BME280;3370;47.712;9.082;2024-02-26T13:49:35;95279.88;;;12.03;52.32
6668;BME280;3370;47.712;9.082;2024-02-26T13:52:22;95278.88;;;11.95;52.92
6668;BME280;3370;47.712;9.082;2024-02-26T13:55:08;95276.41;;;11.93;52.11
6668;BME280;3370;47.712;9.082;2024-02-26T13:57:56;95285.56;;;11.63;52.07
6668;BME280;3370;47.712;9.082;2024-02-26T14:00:42;95283.69;;;11.20;53.10
6668;BME280;3370;47.712;9.082;2024-02-26T14:03:28;95282.63;;;11.00;54.90
6668;BME280;3370;47.712;9.082;2024-02-26T14:06:15;95282.59;;;10.78;56.26
6668;BME280;3370;47.712;9.082;2024-02-26T14:09:01;95281.28;;;10.72;56.99
6668;BME280;3370;47.712;9.082;2024-02-26T14:11:48;95277.06;;;10.71;57.18
6668;BME280;3370;47.712;9.082;2024-02-26T14:14:34;95277.31;;;10.68;57.39
6668;BME280;3370;47.712;9.082;2024-02-26T14:17:24;95276.34;;;10.58;57.23
6668;BME280;3370;47.712;9.082;2024-02-26T14:20:10;95269.81;;;10.53;58.81
6668;BME280;3370;47.712;9.082;2024-02-26T14:22:56;95282.88;;;10.62;58.42
6668;BME280;3370;47.712;9.082;2024-02-26T14:25:42;95275.88;;;10.64;58.28
6668;BME280;3370;47.712;9.082;2024-02-26T14:28:29;95276.13;;;10.61;58.05
6668;BME280;3370;47.712;9.082;2024-02-26T14:31:18;95281.50;;;10.69;57.79
6668;BME280;3370;47.712;9.082;2024-02-26T14:34:04;95265.94;;;10.48;56.73
6668;BME280;3370;47.712;9.082;2024-02-26T14:36:50;95273.06;;;10.55;56.83
6668;BME280;3370;47.712;9.082;2024-02-26T14:39:37;95272.81;;;10.59;57.27
6668;BME280;3370;47.712;9.082;2024-02-26T14:42:24;95276.66;;;10.53;57.69
6668;BME280;3370;47.712;9.082;2024-02-26T14:45:10;95276.66;;;10.53;59.26
6668;BME280;3370;47.712;9.082;2024-02-26T14:47:57;95274.09;;;10.53;60.21
6668;BME280;3370;47.712;9.082;2024-02-26T14:50:43;95280.06;;;10.53;60.71
6668;BME280;3370;47.712;9.082;2024-02-26T14:53:29;95288.59;;;10.54;61.16
6668;BME280;3370;47.712;9.082;2024-02-26T14:56:15;95288.59;;;10.54;62.14
6668;BME280;3370;47.712;9.082;2024-02-26T14:59:01;95291.06;;;10.55;63.11
6668;BME280;3370;47.712;9.082;2024-02-26T15:01:47;95295.59;;;10.52;63.96
6668;BME280;3370;47.712;9.082;2024-02-26T15:04:33;95302.72;;;10.48;64.59
6668;BME280;3370;47.712;9.082;2024-02-26T15:07:20;95299.56;;;10.45;64.89
6668;BME280;3370;47.712;9.082;2024-02-26T15:10:07;95309.03;;;10.44;65.20
6668;BME280;3370;47.712;9.082;2024-02-26T15:12:54;95307.47;;;10.42;65.41
6668;BME280;3370;47.712;9.082;2024-02-26T15:15:41;95315.06;;;10.43;65.50
6668;BME280;3370;47.712;9.082;2024-02-26T15:18:27;95310.16;;;10.40;65.61
6668;BME280;3370;47.712;9.082;2024-02-26T15:21:14;95316.94;;;10.41;66.20
6668;BME280;3370;47.712;9.082;2024-02-26T15:24:00;95322.38;;;10.36;65.64